Cascade Locks, Oregon
Current Conditions -  °F | °C
As of 10:39 AM on Friday 24 Oct 2014 (Local Time) from K4S2 Reporting Station
Broken Clouds Broken Clouds  
Wind Chill: 50°   Ceiling: 300
Heat Index: 50°   Visibility: 7mi
Dew Point: 48°   Wind: 0mph
Humidity: 94%   Direction: NA
Pressure: 30.06"   Gusts: NA
Location:  45.67°N, 121.89°W
Report Text: K4S2 241739Z AUTO 00000KT 7SM BKN003 BKN050 10/09 A3006 RMK AO2 SLP194 T01000090
Loading
Personal Weather Stations






























Interactive Weather Map
Tropical Storm Tracking
New forecast layout! Learn more

10-Day Weather Forecast

Advertisements
Track Severe Weather on mobile